KNKX/NKX METAR and TAF weather

Enter ICAO airport designator
Station Type Date Time Source
KNKX METAR 2020/07/11 00:55 UTC NOAA

KNKX 110055Z 29007KT 10SM CLR 28/18 A2994 RMK AO2 SLP130 T02780178 $


Station Type Date Time Source
KNKX Decoded METAR 2020/07/11 00:55 UTC NOAA

MCAS MIRAMAR, CA, United States (KNKX) 32-52N 117-09W 146M
Jul 10, 2020 - 08:55 PM EDT / 2020.07.11 0055 UTC
Wind: from the WNW (290 degrees) at 8 MPH (7 KT):0
Visibility: 10 mile(s):0
Sky conditions: clear
Temperature: 82.0 F (27.8 C)
Dew Point: 64.0 F (17.8 C)
Relative Humidity: 54%
Pressure (altimeter): 29.94 in. Hg (1013 hPa)
ob: KNKX 110055Z 29007KT 10SM CLR 28/18 A2994 RMK AO2 SLP130 T02780178
cycle: 1

Station Type Date Time Source
KNKX TAF 2020/07/10 21:15 UTC NOAA

TAF KNKX 1021/1121 27008KT 9999 SKC QNH2992INS
FM110130 VRB05KT 9999 SCT020 QNH2993INS
TEMPO 1109/1115 8000 BR OVC006
BECMG 1117/1119 VRB06KT 9999 FEW030 QNH2990INS T30/1021Z T17/1113Z

Example: see airport list